Time;durP1;ratioP1;P1;durP2;ratioP2;P2;SDS_P1;SDS_P2;PMS_P1;PMS_P2;Temp;Humidity;BMP_temperature;BMP_pressure;BME280_temperature;BME280_humidity;BME280_pressure;Samples;Min_cycle;Max_cycle;Signal;HPM_P1;HPM_P2
2023/04/05 00:02:04;;;;;;;7.30;4.00;;;;;;;-145.69;100.00;52484.00;5073328;28;20202;-83
2023/04/05 00:04:33;;;;;;;10.63;3.93;;;;;;;-145.69;100.00;52472.13;5072835;28;20191;-82
2023/04/05 00:07:07;;;;;;;12.20;4.77;;;;;;;-145.69;100.00;52476.06;5073262;28;20230;-81
2023/04/05 00:09:33;;;;;;;8.93;4.73;;;;;;;-145.69;100.00;52476.06;5073102;28;20233;-81
2023/04/05 00:12:00;;;;;;;12.50;5.10;;;;;;;-145.69;100.00;52519.63;5073096;28;20203;-81
2023/04/05 00:14:28;;;;;;;8.43;4.53;;;;;;;-145.69;100.00;52501.81;5072989;28;20199;-81
2023/04/05 00:16:56;;;;;;;8.10;4.20;;;;;;;-145.69;100.00;52491.91;5072095;28;20198;-80
2023/04/05 00:19:23;;;;;;;7.40;3.80;;;;;;;-145.69;100.00;52472.13;5072852;28;20203;-80
2023/04/05 00:21:49;;;;;;;11.87;4.63;;;;;;;-145.69;100.00;52446.38;5072935;28;20207;-82
2023/04/05 00:24:15;;;;;;;15.13;4.47;;;;;;;-145.69;100.00;52460.22;5072698;28;20206;-81
2023/04/05 00:26:43;;;;;;;7.77;4.47;;;;;;;-145.69;100.00;52495.88;5073119;28;20202;-81
2023/04/05 00:29:10;;;;;;;12.17;4.60;;;;;;;-145.69;100.00;52466.16;5072790;28;20626;-81
2023/04/05 00:31:36;;;;;;;9.93;4.07;;;;;;;-145.69;100.00;52462.22;5072902;28;20199;-81
2023/04/05 00:34:07;;;;;;;9.13;4.50;;;;;;;-145.69;100.00;52487.97;5072676;28;20202;-82
2023/04/05 00:36:36;;;;;;;9.47;4.73;;;;;;;-145.69;100.00;52484.00;5072607;28;20545;-81
2023/04/05 00:39:02;;;;;;;7.73;4.50;;;;;;;-145.69;100.00;52484.00;5072682;28;20565;-81
2023/04/05 00:41:31;;;;;;;9.23;4.47;;;;;;;-145.69;100.00;52476.06;5073132;28;20560;-80
2023/04/05 00:44:02;;;;;;;7.17;4.23;;;;;;;-145.69;100.00;52480.03;5068478;28;20227;-84
2023/04/05 00:46:29;;;;;;;10.23;4.67;;;;;;;-145.69;100.00;52468.16;5072791;28;20217;-81
2023/04/05 00:48:56;;;;;;;11.37;5.27;;;;;;;-145.69;100.00;52495.88;5072381;28;20531;-82
2023/04/05 00:51:24;;;;;;;7.87;4.47;;;;;;;-145.69;100.00;52495.88;5072689;28;20206;-81
2023/04/05 00:53:51;;;;;;;12.47;5.10;;;;;;;-145.69;100.00;52472.13;5072579;28;20226;-81
2023/04/05 00:56:21;;;;;;;7.57;5.03;;;;;;;-145.69;100.00;52460.22;5072895;28;20195;-81
2023/04/05 00:58:50;;;;;;;11.20;4.23;;;;;;;-145.69;100.00;52482.00;5072759;28;20206;-81
2023/04/05 01:01:19;;;;;;;8.27;4.67;;;;;;;-145.69;100.00;52501.81;5072721;28;20238;-81
2023/04/05 01:03:52;;;;;;;8.67;4.43;;;;;;;-145.69;100.00;52484.00;5072413;28;20205;-81
2023/04/05 01:06:28;;;;;;;8.70;4.20;;;;;;;-145.69;100.00;52513.69;5072668;28;20264;-82
2023/04/05 01:09:01;;;;;;;13.10;4.50;;;;;;;-145.69;100.00;52450.31;5072563;28;20670;-83
2023/04/05 01:11:31;;;;;;;8.30;4.60;;;;;;;-145.69;100.00;52476.06;5072471;28;20201;-82
2023/04/05 01:13:58;;;;;;;10.15;4.63;;;;;;;-145.69;100.00;52484.00;5072063;28;20442;-83
2023/04/05 01:16:25;;;;;;;9.37;4.27;;;;;;;-145.69;100.00;52487.97;5072365;28;20199;-83
2023/04/05 01:18:55;;;;;;;9.97;4.57;;;;;;;-145.69;100.00;52452.31;5072341;28;20199;-83
2023/04/05 01:21:42;;;;;;;11.63;4.60;;;;;;;-145.69;100.00;52468.16;5072635;28;20538;-83
2023/04/05 01:24:21;;;;;;;6.97;4.30;;;;;;;-145.69;100.00;52472.13;5072441;28;20199;-83
2023/04/05 01:27:04;;;;;;;9.60;5.20;;;;;;;-145.69;100.00;52493.91;5071735;28;20437;-83
2023/04/05 01:30:02;;;;;;;12.27;4.67;;;;;;;-145.69;100.00;52468.16;5076005;28;20268;-83
2023/04/05 01:32:51;;;;;;;7.30;4.33;;;;;;;-145.69;100.00;52476.06;5075679;28;20195;-83
2023/04/05 01:35:24;;;;;;;8.30;4.10;;;;;;;-145.69;100.00;52464.19;5077141;28;20199;-84
2023/04/05 01:37:57;;;;;;;8.03;4.10;;;;;;;-145.69;100.00;52511.72;5078389;28;20207;-84
2023/04/05 01:40:24;;;;;;;10.77;3.90;;;;;;;-145.69;100.00;52474.09;5076925;28;20206;-83
2023/04/05 01:42:51;;;;;;;10.53;4.30;;;;;;;-145.69;100.00;52468.16;5076018;28;20268;-83
2023/04/05 01:45:19;;;;;;;8.97;4.13;;;;;;;-145.69;100.00;52476.06;5076338;28;20209;-84
2023/04/05 01:47:45;;;;;;;8.60;4.20;;;;;;;-145.69;100.00;52478.06;5076253;28;20198;-83
2023/04/05 01:50:12;;;;;;;5.43;3.60;;;;;;;-145.69;100.00;52491.91;5075941;28;20223;-82
2023/04/05 01:52:38;;;;;;;8.73;4.30;;;;;;;-145.69;100.00;52476.06;5075866;28;20225;-84
2023/04/05 01:55:05;;;;;;;7.90;3.80;;;;;;;-145.69;100.00;52468.16;5075775;28;20203;-84
2023/04/05 01:57:32;;;;;;;5.83;3.77;;;;;;;-145.69;100.00;52474.09;5076159;28;20566;-84
2023/04/05 01:59:58;;;;;;;9.20;4.03;;;;;;;-145.69;100.00;52464.19;5076277;28;20199;-84
2023/04/05 02:02:26;;;;;;;10.40;4.03;;;;;;;-145.69;100.00;52503.81;5076018;28;20706;-84
2023/04/05 02:04:56;;;;;;;9.73;4.30;;;;;;;-145.69;100.00;52491.91;5076770;28;20206;-85
2023/04/05 02:07:23;;;;;;;7.93;4.53;;;;;;;-145.69;100.00;52487.97;5077362;28;20207;-85
2023/04/05 02:09:49;;;;;;;6.33;3.57;;;;;;;-145.69;100.00;52470.13;5076835;28;20222;-84
2023/04/05 02:12:16;;;;;;;7.70;3.97;;;;;;;-145.69;100.00;52495.88;5076620;28;20557;-85
2023/04/05 02:14:42;;;;;;;11.50;4.40;;;;;;;-145.69;100.00;52501.81;5076997;28;20199;-85
2023/04/05 02:17:09;;;;;;;9.60;4.03;;;;;;;-145.69;100.00;52503.81;5076418;28;20190;-84
2023/04/05 02:19:39;;;;;;;6.13;3.83;;;;;;;-145.69;100.00;52476.06;5075248;28;20234;-82
2023/04/05 02:22:06;;;;;;;9.97;4.03;;;;;;;-145.69;100.00;52484.00;5075114;28;20219;-83
2023/04/05 02:24:33;;;;;;;11.63;4.13;;;;;;;-145.69;100.00;52466.16;5075016;28;20206;-83
2023/04/05 02:27:01;;;;;;;11.03;4.73;;;;;;;-145.69;100.00;52495.88;5074600;28;20202;-82
2023/04/05 02:29:28;;;;;;;10.10;4.67;;;;;;;-145.69;100.00;52505.78;5074876;28;20194;-82
2023/04/05 02:31:55;;;;;;;8.07;3.93;;;;;;;-145.69;100.00;52517.66;5074797;28;20198;-82
2023/04/05 02:34:24;;;;;;;12.17;3.97;;;;;;;-145.69;100.00;52493.91;5074621;28;20206;-82
2023/04/05 02:36:53;;;;;;;7.57;4.03;;;;;;;-145.69;100.00;52513.69;5074727;28;20597;-83
2023/04/05 02:39:21;;;;;;;13.50;5.20;;;;;;;-145.69;100.00;52499.84;5074256;28;20530;-82
2023/04/05 02:41:48;;;;;;;8.23;4.30;;;;;;;-145.69;100.00;52448.34;5073386;28;20293;-83
2023/04/05 02:44:14;;;;;;;9.43;4.90;;;;;;;-145.69;100.00;52454.28;5074802;28;20252;-83
2023/04/05 02:46:41;;;;;;;10.20;4.63;;;;;;;-145.69;100.00;52484.00;5074871;28;20205;-83
2023/04/05 02:49:13;;;;;;;9.00;4.93;;;;;;;-145.69;100.00;52484.00;5074657;28;20546;-83
2023/04/05 02:51:40;;;;;;;10.57;4.83;;;;;;;-145.69;100.00;52470.13;5074416;28;20231;-83
2023/04/05 02:54:09;;;;;;;9.70;4.67;;;;;;;-145.69;100.00;52456.28;5074391;28;20203;-82
2023/04/05 02:56:35;;;;;;;15.37;4.73;;;;;;;-145.69;100.00;52531.53;5073981;28;20195;-82
2023/04/05 02:59:02;;;;;;;13.10;4.83;;;;;;;-145.69;100.00;52458.25;5074968;28;20199;-84
2023/04/05 03:01:29;;;;;;;9.17;4.67;;;;;;;-145.69;100.00;52476.06;5075197;28;20231;-84
2023/04/05 03:03:55;;;;;;;11.97;4.33;;;;;;;-145.69;100.00;52499.84;5075062;28;20203;-83
2023/04/05 03:06:22;;;;;;;10.17;4.90;;;;;;;-145.69;100.00;52464.19;5075187;28;20201;-82
2023/04/05 03:08:49;;;;;;;8.53;4.37;;;;;;;-145.69;100.00;52505.78;5074808;28;20562;-83
2023/04/05 03:11:17;;;;;;;7.80;4.20;;;;;;;-145.69;100.00;52511.72;5073078;28;20359;-83
2023/04/05 03:13:43;;;;;;;9.43;4.00;;;;;;;-145.69;100.00;52482.00;5074539;28;20195;-83
2023/04/05 03:16:11;;;;;;;9.63;4.60;;;;;;;-145.69;100.00;52454.28;5074608;28;20195;-83
2023/04/05 03:18:38;;;;;;;9.37;4.70;;;;;;;-145.69;100.00;52489.94;5074571;28;20199;-83
2023/04/05 03:21:04;;;;;;;10.67;5.33;;;;;;;-145.69;100.00;52491.91;5073797;28;20203;-83
2023/04/05 03:23:32;;;;;;;8.50;4.77;;;;;;;-145.69;100.00;52491.91;5073999;28;20202;-83
2023/04/05 03:25:58;;;;;;;5.87;3.87;;;;;;;-145.69;100.00;52521.63;5075120;28;20194;-83
2023/04/05 03:28:27;;;;;;;6.60;4.40;;;;;;;-145.69;100.00;52491.91;5074942;28;20210;-82
2023/04/05 03:30:53;;;;;;;9.60;4.97;;;;;;;-145.69;100.00;52499.84;5073758;28;20227;-82
2023/04/05 03:33:20;;;;;;;9.00;4.87;;;;;;;-145.69;100.00;52519.63;5073501;28;20203;-82
2023/04/05 03:35:47;;;;;;;12.77;5.07;;;;;;;-145.69;100.00;52480.03;5073251;28;20557;-82
2023/04/05 03:38:14;;;;;;;10.40;4.60;;;;;;;-145.69;100.00;52448.34;5072422;28;20654;-80
2023/04/05 03:40:41;;;;;;;10.47;4.80;;;;;;;-145.69;100.00;52503.81;5072927;28;20195;-80
2023/04/05 03:43:07;;;;;;;9.63;4.67;;;;;;;-145.69;100.00;52450.31;5073428;28;20733;-81
2023/04/05 03:45:35;;;;;;;12.20;5.30;;;;;;;-145.69;100.00;52507.75;5072836;28;20664;-80
2023/04/05 03:48:03;;;;;;;13.20;5.40;;;;;;;-145.69;100.00;52509.75;5073288;28;20199;-80
2023/04/05 03:50:29;;;;;;;14.53;5.70;;;;;;;-145.69;100.00;52503.81;5072287;28;20309;-82
2023/04/05 03:52:57;;;;;;;10.23;5.50;;;;;;;-145.69;100.00;52444.38;5073392;28;20203;-82
2023/04/05 03:55:24;;;;;;;11.17;5.40;;;;;;;-145.69;100.00;52480.03;5073180;28;20195;-81
2023/04/05 03:57:52;;;;;;;11.70;5.40;;;;;;;-145.69;100.00;52487.97;5073205;28;20205;-81
2023/04/05 04:00:19;;;;;;;9.40;5.53;;;;;;;-145.69;100.00;52482.00;5073220;28;20561;-81
2023/04/05 04:02:48;;;;;;;9.50;4.97;;;;;;;-145.69;100.00;52511.72;5073173;28;20229;-81
2023/04/05 04:05:16;;;;;;;11.57;5.40;;;;;;;-145.69;100.00;52525.59;5072667;28;20207;-81
2023/04/05 04:07:44;;;;;;;11.00;4.97;;;;;;;-145.69;100.00;52448.34;5071749;28;20202;-80
2023/04/05 04:10:12;;;;;;;10.43;5.47;;;;;;;-145.69;100.00;52460.22;5072915;28;20624;-82
2023/04/05 04:12:39;;;;;;;11.67;6.43;;;;;;;-145.69;100.00;52476.06;5073345;28;20198;-81
2023/04/05 04:15:06;;;;;;;11.70;5.60;;;;;;;-145.69;100.00;52474.09;5072932;28;20234;-81
2023/04/05 04:17:34;;;;;;;11.03;5.57;;;;;;;-145.69;100.00;52442.41;5073286;28;20195;-81
2023/04/05 04:20:06;;;;;;;11.10;5.00;;;;;;;-145.69;100.00;52517.66;5073283;28;20203;-82
2023/04/05 04:22:37;;;;;;;17.83;6.10;;;;;;;-145.69;100.00;52509.75;5073522;28;20202;-82
2023/04/05 04:25:04;;;;;;;13.00;5.70;;;;;;;-145.69;100.00;52497.84;5073142;28;20252;-82
2023/04/05 04:27:31;;;;;;;9.23;5.00;;;;;;;-145.69;100.00;52485.97;5073223;28;20206;-81
2023/04/05 04:30:00;;;;;;;9.43;5.03;;;;;;;-145.69;100.00;52460.22;5072974;28;20203;-81
2023/04/05 04:32:46;;;;;;;14.73;5.53;;;;;;;-145.69;100.00;52476.06;5072417;28;20315;-81
2023/04/05 04:35:17;;;;;;;13.10;5.43;;;;;;;-145.69;100.00;52418.63;5072562;28;20199;-81
2023/04/05 04:37:45;;;;;;;9.33;4.93;;;;;;;-145.69;100.00;52484.00;5073066;28;20285;-82
2023/04/05 04:40:16;;;;;;;9.03;4.93;;;;;;;-145.69;100.00;52489.94;5072676;28;20191;-81
2023/04/05 04:42:45;;;;;;;10.43;5.57;;;;;;;-145.69;100.00;52487.97;5072550;28;20227;-81
2023/04/05 04:45:12;;;;;;;10.87;5.57;;;;;;;-145.69;100.00;52480.03;5072920;28;20314;-79
2023/04/05 04:47:39;;;;;;;13.50;5.57;;;;;;;-145.69;100.00;52466.16;5073224;28;20206;-82
2023/04/05 04:50:07;;;;;;;10.40;5.00;;;;;;;-145.69;100.00;52484.00;5069457;28;20200;-82
2023/04/05 04:52:36;;;;;;;12.07;6.40;;;;;;;-145.69;100.00;52513.69;5061236;28;20229;-82
2023/04/05 04:55:03;;;;;;;14.53;5.67;;;;;;;-145.69;100.00;52499.84;5073360;28;20201;-82
2023/04/05 04:57:29;;;;;;;20.23;5.33;;;;;;;-145.69;100.00;52519.63;5073824;28;20190;-82
2023/04/05 04:59:56;;;;;;;13.83;5.70;;;;;;;-145.69;100.00;52454.28;5073176;28;20628;-80
2023/04/05 05:02:23;;;;;;;11.87;6.03;;;;;;;-145.69;100.00;52523.59;5073805;28;20692;-81
2023/04/05 05:04:50;;;;;;;12.23;5.87;;;;;;;-145.69;100.00;52470.13;5076612;28;20202;-81
2023/04/05 05:07:17;;;;;;;16.77;6.00;;;;;;;-145.69;100.00;52515.69;5076338;28;20198;-81
2023/04/05 05:09:46;;;;;;;12.80;6.80;;;;;;;-145.69;100.00;52515.69;5076431;28;20199;-81
2023/04/05 05:12:13;;;;;;;14.03;6.27;;;;;;;-145.69;100.00;52454.28;5076916;28;20309;-81
2023/04/05 05:14:39;;;;;;;11.57;4.73;;;;;;;-145.69;100.00;52464.19;5077006;28;20207;-81
2023/04/05 05:17:07;;;;;;;10.77;5.40;;;;;;;-145.69;100.00;52497.84;5076704;28;20230;-82
2023/04/05 05:19:34;;;;;;;13.17;5.30;;;;;;;-145.69;100.00;52464.19;5076515;28;20199;-82
2023/04/05 05:22:00;;;;;;;15.40;5.73;;;;;;;-145.69;100.00;52452.31;5076799;28;20195;-81
2023/04/05 05:24:27;;;;;;;10.83;5.80;;;;;;;-145.69;100.00;52499.84;5076951;28;20202;-81
2023/04/05 05:26:54;;;;;;;9.90;4.90;;;;;;;-145.69;100.00;52517.66;5076617;28;20239;-80
2023/04/05 05:29:21;;;;;;;7.70;4.47;;;;;;;-145.69;100.00;52487.97;5076604;28;20198;-82
2023/04/05 05:31:47;;;;;;;10.00;5.43;;;;;;;-145.69;100.00;52529.53;5076626;28;20636;-81
2023/04/05 05:34:14;;;;;;;11.03;4.90;;;;;;;-145.69;100.00;52501.81;5076664;28;20676;-81
2023/04/05 05:36:41;;;;;;;14.70;4.87;;;;;;;-145.69;100.00;52478.06;5076131;28;20187;-80
2023/04/05 05:39:07;;;;;;;12.37;5.90;;;;;;;-145.69;100.00;52484.00;5076684;28;20212;-81
2023/04/05 05:41:35;;;;;;;16.17;5.00;;;;;;;-145.69;100.00;52472.13;5076269;28;20195;-80
2023/04/05 05:44:03;;;;;;;10.20;5.17;;;;;;;-145.69;100.00;52487.97;5075956;28;20230;-81
2023/04/05 05:46:29;;;;;;;10.47;5.23;;;;;;;-145.69;100.00;52476.06;5075984;28;20680;-81
2023/04/05 05:48:56;;;;;;;12.53;5.63;;;;;;;-145.69;100.00;52476.06;5076016;28;20210;-81
2023/04/05 05:51:22;;;;;;;12.27;5.37;;;;;;;-145.69;100.00;52476.06;5075325;28;20242;-81
2023/04/05 05:53:49;;;;;;;11.60;5.83;;;;;;;-145.69;100.00;52476.06;5075560;28;20195;-81
2023/04/05 05:56:15;;;;;;;15.93;5.43;;;;;;;-145.69;100.00;52430.53;5075685;28;20692;-82
2023/04/05 05:58:42;;;;;;;10.07;4.37;;;;;;;-145.69;100.00;52503.81;5075567;28;20203;-81
2023/04/05 06:01:10;;;;;;;10.23;5.07;;;;;;;-145.69;100.00;52474.09;5075348;28;20664;-81
2023/04/05 06:03:37;;;;;;;10.40;5.67;;;;;;;-145.69;100.00;52472.13;5075446;28;20253;-81
2023/04/05 06:06:04;;;;;;;10.00;4.77;;;;;;;-145.69;100.00;52474.09;5074929;28;20213;-81
2023/04/05 06:08:32;;;;;;;9.90;4.43;;;;;;;-145.69;100.00;52470.13;5076000;28;20218;-81
2023/04/05 06:10:58;;;;;;;8.77;4.83;;;;;;;-145.69;100.00;52484.00;5075585;28;20325;-81
2023/04/05 06:13:25;;;;;;;9.27;4.93;;;;;;;-145.69;100.00;52489.94;5075030;28;20201;-81
2023/04/05 06:15:51;;;;;;;14.40;4.40;;;;;;;-145.69;100.00;52468.16;5075159;28;20210;-81
2023/04/05 06:18:19;;;;;;;8.70;4.33;;;;;;;-145.69;100.00;52507.75;5074935;28;20202;-80
2023/04/05 06:20:46;;;;;;;6.00;3.80;;;;;;;-145.69;100.00;52470.13;5074696;28;20202;-80
2023/04/05 06:23:12;;;;;;;6.93;3.90;;;;;;;-145.69;100.00;52464.19;5074785;28;20666;-80
2023/04/05 06:25:39;;;;;;;9.57;5.23;;;;;;;-145.69;100.00;52456.28;5075011;28;20203;-81
2023/04/05 06:28:07;;;;;;;10.70;5.10;;;;;;;-145.69;100.00;52468.16;5074775;28;20209;-81
2023/04/05 06:30:34;;;;;;;8.57;4.77;;;;;;;-145.69;100.00;52470.13;5074969;28;20203;-81
2023/04/05 06:33:00;;;;;;;9.93;4.57;;;;;;;-145.69;100.00;52489.94;5074266;28;20648;-81
2023/04/05 06:35:28;;;;;;;8.07;3.93;;;;;;;-145.69;100.00;52480.03;5074820;28;20545;-81
2023/04/05 06:37:55;;;;;;;9.10;4.63;;;;;;;-145.69;100.00;52487.97;5074416;28;20204;-82
2023/04/05 06:40:21;;;;;;;11.63;4.83;;;;;;;-145.69;100.00;52476.06;5074685;28;20203;-82
2023/04/05 06:42:48;;;;;;;10.03;5.20;;;;;;;-145.69;100.00;52484.00;5074474;28;20237;-82
2023/04/05 06:45:15;;;;;;;10.13;4.20;;;;;;;-145.69;100.00;52511.72;5072218;28;20203;-82
2023/04/05 06:47:41;;;;;;;9.73;5.17;;;;;;;-145.69;100.00;52448.34;5054253;28;20207;-82
2023/04/05 06:50:09;;;;;;;9.07;5.27;;;;;;;-145.69;100.00;52452.31;5054434;28;20195;-81
2023/04/05 06:52:37;;;;;;;8.70;4.70;;;;;;;-145.69;100.00;52476.06;5054274;28;20235;-81
2023/04/05 06:55:04;;;;;;;10.63;5.33;;;;;;;-145.69;100.00;52485.97;5053054;28;20199;-82
2023/04/05 06:57:31;;;;;;;9.33;4.80;;;;;;;-145.69;100.00;52456.28;5071869;28;20202;-81
2023/04/05 06:59:58;;;;;;;10.97;5.17;;;;;;;-145.69;100.00;52432.50;5074289;28;20206;-83
2023/04/05 07:02:24;;;;;;;17.53;5.00;;;;;;;-145.69;100.00;52466.16;5075325;28;20248;-81
2023/04/05 07:04:52;;;;;;;10.50;4.43;;;;;;;-145.69;99.43;52446.38;5074927;28;20206;-82
2023/04/05 07:07:18;;;;;;;9.33;3.83;;;;;;;-145.69;96.09;52474.09;5075290;28;20191;-82
2023/04/05 07:09:46;;;;;;;9.10;4.03;;;;;;;-145.69;94.64;52444.38;5075519;28;20203;-82
2023/04/05 07:12:13;;;;;;;6.97;4.03;;;;;;;-145.69;90.04;52476.06;5074843;28;20229;-84
2023/04/05 07:14:39;;;;;;;10.90;4.07;;;;;;;-145.69;90.95;52478.06;5073810;28;20191;-84
2023/04/05 07:17:07;;;;;;;7.77;4.10;;;;;;;-145.69;93.26;52484.00;5074821;28;20194;-83
2023/04/05 07:19:33;;;;;;;10.50;4.50;;;;;;;-145.69;91.72;52426.56;5074628;28;20199;-84
2023/04/05 07:22:00;;;;;;;7.50;3.63;;;;;;;-145.69;85.47;52442.41;5073969;28;20215;-83
2023/04/05 07:24:26;;;;;;;8.30;3.90;;;;;;;-145.69;82.13;52418.63;5072659;28;20217;-82
2023/04/05 07:26:55;;;;;;;9.63;4.13;;;;;;;-145.69;80.58;52458.25;5073665;28;20199;-82
2023/04/05 07:29:22;;;;;;;5.60;3.47;;;;;;;-145.69;86.22;52392.91;5073131;28;20245;-82
2023/04/05 07:31:48;;;;;;;9.83;4.77;;;;;;;-145.69;87.42;52430.53;5073595;28;20219;-82
2023/04/05 07:34:15;;;;;;;8.57;4.20;;;;;;;-145.69;83.04;52460.22;5073375;28;20198;-84
2023/04/05 07:36:41;;;;;;;8.20;4.27;;;;;;;-145.69;84.19;52452.31;5074121;28;20672;-84
2023/04/05 07:39:08;;;;;;;5.73;3.70;;;;;;;-145.69;88.18;52446.38;5074171;28;20209;-84
2023/04/05 07:41:35;;;;;;;9.37;3.53;;;;;;;-145.69;81.97;52416.66;5074143;28;20205;-85
2023/04/05 07:44:03;;;;;;;8.03;4.03;;;;;;;-145.69;77.92;52493.91;5074205;28;20222;-85
2023/04/05 07:46:30;;;;;;;6.77;3.80;;;;;;;-145.69;59.96;52428.53;5074962;28;20205;-86
2023/04/05 07:48:57;;;;;;;8.20;2.90;;;;;;;-145.69;59.26;52428.53;5075916;28;20206;-85
2023/04/05 07:51:23;;;;;;;11.50;4.10;;;;;;;-145.69;75.50;52412.69;5076648;28;20202;-86
2023/04/05 07:53:50;;;;;;;5.17;3.10;;;;;;;-145.69;64.09;52448.34;5077057;28;20597;-84
2023/04/05 07:56:16;;;;;;;9.33;3.13;;;;;;;-145.69;52.50;52446.38;5077420;28;20305;-86
2023/04/05 07:58:43;;;;;;;6.77;3.87;;;;;;;-145.69;55.82;52420.63;5077977;28;20195;-87
2023/04/05 08:01:11;;;;;;;7.17;3.40;;;;;;;-145.69;55.09;52444.38;5078648;28;20198;-87
2023/04/05 08:03:39;;;;;;;9.10;3.87;;;;;;;-145.69;58.03;52420.63;5075439;28;20217;-85
2023/04/05 08:06:10;;;;;;;8.17;3.37;;;;;;;-145.69;50.57;52444.38;5076392;28;20289;-84
2023/04/05 08:08:37;;;;;;;8.93;3.47;;;;;;;-145.69;49.61;52408.75;5074740;28;20723;-85
2023/04/05 08:11:04;;;;;;;9.37;3.83;;;;;;;-145.69;57.73;52432.50;5075132;28;20565;-85
2023/04/05 08:13:32;;;;;;;11.23;4.20;;;;;;;-145.69;60.84;52444.38;5073661;28;20237;-85
2023/04/05 08:15:59;;;;;;;9.50;4.00;;;;;;;-145.69;63.89;52418.63;5073608;28;20565;-84
2023/04/05 08:18:27;;;;;;;8.07;3.40;;;;;;;-145.69;49.92;52400.81;5074054;28;20202;-83
2023/04/05 08:20:54;;;;;;;6.73;3.50;;;;;;;-145.69;46.36;52424.59;5073543;28;20206;-82
2023/04/05 08:23:21;;;;;;;7.33;3.00;;;;;;;-145.69;47.15;52422.59;5071600;28;20562;-82
2023/04/05 08:25:48;;;;;;;4.93;3.10;;;;;;;-145.69;46.90;52400.81;5074024;28;20203;-83
2023/04/05 08:28:14;;;;;;;7.27;3.40;;;;;;;-145.69;45.31;52398.84;5072832;28;20530;-83
2023/04/05 08:30:41;;;;;;;5.80;3.13;;;;;;;-145.69;46.40;52444.38;5073682;28;20195;-84
2023/04/05 08:33:08;;;;;;;5.70;3.20;;;;;;;-145.69;47.52;52428.53;5072998;28;20223;-82
2023/04/05 08:35:37;;;;;;;5.97;3.30;;;;;;;-145.69;45.99;52426.56;5073742;28;20206;-82
2023/04/05 08:38:04;;;;;;;6.40;2.80;;;;;;;-145.69;45.19;52383.00;5076861;28;20206;-83
2023/04/05 08:40:36;;;;;;;5.53;2.83;;;;;;;-145.69;45.19;52392.91;5069232;28;20197;-83
2023/04/05 08:43:10;;;;;;;5.47;3.33;;;;;;;-145.69;44.75;52388.94;5077926;28;20265;-84
2023/04/05 08:45:43;;;;;;;5.27;3.00;;;;;;;-145.69;45.01;52416.66;5081576;28;20202;-83
2023/04/05 08:48:09;;;;;;;8.80;3.00;;;;;;;-145.69;44.73;52400.81;5083502;28;20557;-83
2023/04/05 08:50:37;;;;;;;8.93;3.53;;;;;;;-145.69;42.94;52373.09;5083704;28;20198;-83
2023/04/05 08:53:04;;;;;;;6.47;2.97;;;;;;;-145.69;43.43;52392.91;5082108;28;20689;-85
2023/04/05 08:55:30;;;;;;;5.23;3.27;;;;;;;-145.69;43.36;52388.94;5077445;28;20191;-83
2023/04/05 08:58:03;;;;;;;8.10;3.30;;;;;;;-145.69;43.18;52412.69;5079675;28;20202;-83
2023/04/05 09:00:31;;;;;;;4.43;2.80;;;;;;;-145.69;41.44;52394.88;5078761;28;20255;-84
2023/04/05 09:03:01;;;;;;;4.80;3.07;;;;;;;-145.69;44.12;52388.94;5077773;28;20538;-84
2023/04/05 09:05:28;;;;;;;5.90;3.53;;;;;;;-145.69;43.68;52384.97;5077398;28;20217;-84
2023/04/05 09:07:57;;;;;;;4.47;3.00;;;;;;;-145.69;41.96;52432.50;5077320;28;20199;-83
2023/04/05 09:10:26;;;;;;;7.50;3.30;;;;;;;-145.69;41.66;52400.81;5077106;28;20202;-81
2023/04/05 09:12:53;;;;;;;6.53;3.10;;;;;;;-145.69;42.18;52408.75;5075801;28;20313;-78
2023/04/05 09:15:23;;;;;;;6.67;3.50;;;;;;;-145.69;42.46;52390.91;5075856;28;20207;-78
2023/04/05 09:17:50;;;;;;;5.87;2.87;;;;;;;-145.69;42.21;52388.94;5075722;28;20600;-81
2023/04/05 09:20:17;;;;;;;7.00;3.17;;;;;;;-145.69;42.76;52408.75;5075737;28;20198;-81
2023/04/05 09:22:44;;;;;;;8.07;3.57;;;;;;;-145.69;41.72;52392.91;5075642;28;20199;-80
2023/04/05 09:25:38;;;;;;;6.23;3.33;;;;;;;-145.69;41.72;52420.63;5076185;28;20203;-80
2023/04/05 09:28:05;;;;;;;4.97;3.23;;;;;;;-145.69;40.90;52396.84;5082198;28;20210;-81
2023/04/05 09:30:32;;;;;;;7.73;3.23;;;;;;;-145.69;41.40;52400.81;5076036;28;20285;-81
2023/04/05 09:32:59;;;;;;;5.93;3.83;;;;;;;-145.69;41.62;52384.97;5075171;28;20630;-80
2023/04/05 09:35:27;;;;;;;7.00;3.17;;;;;;;-145.69;41.62;52420.63;5075744;28;20199;-80
2023/04/05 09:37:56;;;;;;;6.17;3.13;;;;;;;-145.69;41.52;52386.97;5075405;28;20522;-80
2023/04/05 09:40:39;;;;;;;7.37;3.23;;;;;;;-145.69;41.01;52392.91;5075176;28;20207;-80
2023/04/05 09:43:06;;;;;;;8.23;3.33;;;;;;;-145.69;43.14;52408.75;5075416;28;20242;-80
2023/04/05 09:45:38;;;;;;;5.07;3.23;;;;;;;-145.69;44.29;52396.84;5075563;28;20202;-80
2023/04/05 09:48:05;;;;;;;6.13;3.33;;;;;;;-145.69;43.07;52381.00;5075286;28;20206;-80
2023/04/05 09:50:35;;;;;;;5.33;3.23;;;;;;;-145.69;42.52;52373.09;5075025;28;20195;-80
2023/04/05 09:53:07;;;;;;;7.90;3.07;;;;;;;-145.69;44.33;52353.28;5075039;28;20262;-81
2023/04/05 09:55:35;;;;;;;9.27;3.40;;;;;;;-145.69;46.07;52402.78;5075487;28;20656;-81
2023/04/05 09:58:04;;;;;;;10.10;3.67;;;;;;;-145.69;42.91;52388.94;5075052;28;20480;-81
2023/04/05 10:00:36;;;;;;;7.07;3.20;;;;;;;-145.69;41.80;52383.00;5074999;28;20198;-78
2023/04/05 10:03:05;;;;;;;5.20;3.30;;;;;;;-145.69;44.67;52416.66;5074816;28;20210;-81
2023/04/05 10:05:32;;;;;;;5.33;3.13;;;;;;;-145.69;44.46;52355.28;5074994;28;20203;-81
2023/04/05 10:07:59;;;;;;;8.40;3.43;;;;;;;-145.69;47.65;52408.75;5074546;28;20549;-81
2023/04/05 10:10:26;;;;;;;7.43;3.50;;;;;;;-145.69;44.31;52384.97;5075047;28;20206;-80
2023/04/05 10:12:55;;;;;;;7.77;3.73;;;;;;;-145.69;41.81;52381.00;5074593;28;20227;-81
2023/04/05 10:15:25;;;;;;;10.60;3.40;;;;;;;-145.69;41.55;52377.06;5074600;28;20561;-81
2023/04/05 10:17:55;;;;;;;7.10;3.43;;;;;;;-145.69;41.26;52383.00;5074738;28;20203;-81
2023/04/05 10:20:23;;;;;;;6.37;3.47;;;;;;;-145.69;42.97;52377.06;5075045;28;20206;-80
2023/04/05 10:23:07;;;;;;;8.93;3.90;;;;;;;-145.69;43.53;52377.06;5074773;28;20210;-81
2023/04/05 10:25:44;;;;;;;5.67;3.63;;;;;;;-145.69;44.12;52384.97;5074549;28;20194;-79
2023/04/05 10:28:18;;;;;;;6.87;3.87;;;;;;;-145.69;43.74;52375.06;5062940;28;20197;-81
2023/04/05 10:30:51;;;;;;;5.37;3.30;;;;;;;-145.69;43.05;52375.06;5074794;28;20187;-79
2023/04/05 10:33:21;;;;;;;7.80;3.97;;;;;;;-145.69;46.04;52394.88;5074153;28;20229;-79
2023/04/05 10:35:59;;;;;;;7.37;4.10;;;;;;;-145.69;42.28;52357.25;5074783;28;20225;-79
2023/04/05 10:38:28;;;;;;;9.53;4.10;;;;;;;-145.69;44.36;52379.03;5074911;28;20209;-80
2023/04/05 10:40:58;;;;;;;7.50;4.10;;;;;;;-145.69;41.90;52367.16;5074576;28;20195;-81
2023/04/05 10:43:29;;;;;;;7.60;3.90;;;;;;;-145.69;42.48;52396.84;5070837;28;20237;-79
2023/04/05 10:45:57;;;;;;;6.40;3.83;;;;;;;-145.69;40.56;52408.75;5056759;28;20199;-78
2023/04/05 10:48:34;;;;;;;6.40;3.47;;;;;;;-145.69;41.30;52381.00;5056964;28;20211;-82
2023/04/05 10:51:01;;;;;;;7.57;4.20;;;;;;;-145.69;40.75;52388.94;5054099;28;20290;-81
2023/04/05 10:53:30;;;;;;;8.20;3.50;;;;;;;-145.69;40.34;52345.38;5064748;28;20593;-82
2023/04/05 10:55:59;;;;;;;5.10;3.30;;;;;;;-145.69;42.31;52337.44;5077121;28;20202;-81
2023/04/05 10:58:28;;;;;;;6.47;3.63;;;;;;;-145.69;42.49;52383.00;5079330;28;20205;-81
2023/04/05 11:00:57;;;;;;;6.83;3.60;;;;;;;-145.69;42.41;52392.91;5076480;28;20199;-81
2023/04/05 11:03:41;;;;;;;5.17;3.83;;;;;;;-145.69;42.82;52357.25;5075823;28;20561;-82
2023/04/05 11:06:32;;;;;;;6.03;3.50;;;;;;;-145.69;43.33;52377.06;5077444;28;20199;-81
2023/04/05 11:09:01;;;;;;;6.23;3.60;;;;;;;-145.69;41.16;52345.38;5077056;28;20203;-82
2023/04/05 11:11:38;;;;;;;9.87;3.63;;;;;;;-145.69;40.27;52367.16;5075896;28;20202;-82
2023/04/05 11:14:18;;;;;;;5.53;3.80;;;;;;;-145.69;41.36;52351.31;5075834;28;20226;-79
2023/04/05 11:16:47;;;;;;;8.10;4.20;;;;;;;-145.69;40.49;52390.91;5074286;28;20195;-80